sensor_id;sensor_type;location;lat;lon;timestamp;temperature;humidity
23618;DHT22;18207;32.078;34.818;2023-07-13T00:00:15;32.50;48.40
23618;DHT22;18207;32.078;34.818;2023-07-13T00:02:45;32.50;48.40
23618;DHT22;18207;32.078;34.818;2023-07-13T00:05:16;32.50;48.30
23618;DHT22;18207;32.078;34.818;2023-07-13T00:07:49;32.50;48.40
23618;DHT22;18207;32.078;34.818;2023-07-13T00:10:22;32.50;48.40
23618;DHT22;18207;32.078;34.818;2023-07-13T00:12:53;32.50;48.50
23618;DHT22;18207;32.078;34.818;2023-07-13T00:15:25;32.50;48.50
23618;DHT22;18207;32.078;34.818;2023-07-13T00:17:57;32.50;48.40
23618;DHT22;18207;32.078;34.818;2023-07-13T00:20:28;32.50;48.60
23618;DHT22;18207;32.078;34.818;2023-07-13T00:23:00;32.50;48.60
23618;DHT22;18207;32.078;34.818;2023-07-13T00:25:30;32.50;48.60
23618;DHT22;18207;32.078;34.818;2023-07-13T00:28:00;32.50;48.60
23618;DHT22;18207;32.078;34.818;2023-07-13T00:30:31;32.50;48.60
23618;DHT22;18207;32.078;34.818;2023-07-13T00:33:01;32.50;48.60
23618;DHT22;18207;32.078;34.818;2023-07-13T00:35:44;32.50;48.60
23618;DHT22;18207;32.078;34.818;2023-07-13T00:38:15;32.50;48.60
23618;DHT22;18207;32.078;34.818;2023-07-13T00:40:47;32.50;48.60
23618;DHT22;18207;32.078;34.818;2023-07-13T00:43:21;32.50;48.60
23618;DHT22;18207;32.078;34.818;2023-07-13T00:46:13;32.50;48.60
23618;DHT22;18207;32.078;34.818;2023-07-13T00:48:48;32.50;48.70
23618;DHT22;18207;32.078;34.818;2023-07-13T00:51:23;32.50;48.70
23618;DHT22;18207;32.078;34.818;2023-07-13T00:54:05;32.50;48.60
23618;DHT22;18207;32.078;34.818;2023-07-13T00:56:40;32.50;48.70
23618;DHT22;18207;32.078;34.818;2023-07-13T00:59:15;32.50;48.70
23618;DHT22;18207;32.078;34.818;2023-07-13T01:01:48;32.50;48.70
23618;DHT22;18207;32.078;34.818;2023-07-13T01:04:19;32.50;48.70
23618;DHT22;18207;32.078;34.818;2023-07-13T01:06:49;32.50;48.70
23618;DHT22;18207;32.078;34.818;2023-07-13T01:09:22;32.50;48.70
23618;DHT22;18207;32.078;34.818;2023-07-13T01:11:54;32.50;48.80
23618;DHT22;18207;32.078;34.818;2023-07-13T01:14:24;32.50;48.80
23618;DHT22;18207;32.078;34.818;2023-07-13T01:16:55;32.50;48.90
23618;DHT22;18207;32.078;34.818;2023-07-13T01:19:33;32.50;48.90
23618;DHT22;18207;32.078;34.818;2023-07-13T01:22:13;32.50;48.90
23618;DHT22;18207;32.078;34.818;2023-07-13T01:24:47;32.50;48.90
23618;DHT22;18207;32.078;34.818;2023-07-13T01:27:21;32.50;48.90
23618;DHT22;18207;32.078;34.818;2023-07-13T01:29:53;32.50;49.00
23618;DHT22;18207;32.078;34.818;2023-07-13T01:32:29;32.50;48.90
23618;DHT22;18207;32.078;34.818;2023-07-13T01:35:02;32.40;48.80
23618;DHT22;18207;32.078;34.818;2023-07-13T01:37:35;32.40;48.60
23618;DHT22;18207;32.078;34.818;2023-07-13T01:40:06;32.40;48.60
23618;DHT22;18207;32.078;34.818;2023-07-13T01:42:37;32.40;48.50
23618;DHT22;18207;32.078;34.818;2023-07-13T01:45:17;32.40;48.40
23618;DHT22;18207;32.078;34.818;2023-07-13T01:47:47;32.30;48.80
23618;DHT22;18207;32.078;34.818;2023-07-13T01:50:18;32.30;48.20
23618;DHT22;18207;32.078;34.818;2023-07-13T01:52:52;32.30;48.20
23618;DHT22;18207;32.078;34.818;2023-07-13T01:55:22;32.30;48.10
23618;DHT22;18207;32.078;34.818;2023-07-13T01:57:52;32.30;48.10
23618;DHT22;18207;32.078;34.818;2023-07-13T02:00:23;32.20;48.00
23618;DHT22;18207;32.078;34.818;2023-07-13T02:02:54;32.20;48.00
23618;DHT22;18207;32.078;34.818;2023-07-13T02:05:24;32.10;47.90
23618;DHT22;18207;32.078;34.818;2023-07-13T02:07:56;32.10;47.90
23618;DHT22;18207;32.078;34.818;2023-07-13T02:10:27;32.10;48.00
23618;DHT22;18207;32.078;34.818;2023-07-13T02:12:57;32.10;47.90
23618;DHT22;18207;32.078;34.818;2023-07-13T02:15:27;32.00;47.90
23618;DHT22;18207;32.078;34.818;2023-07-13T02:18:07;32.00;48.60
23618;DHT22;18207;32.078;34.818;2023-07-13T02:20:37;32.00;48.00
23618;DHT22;18207;32.078;34.818;2023-07-13T02:23:09;31.90;48.00
23618;DHT22;18207;32.078;34.818;2023-07-13T02:25:39;31.90;48.00
23618;DHT22;18207;32.078;34.818;2023-07-13T02:28:09;31.80;48.00
23618;DHT22;18207;32.078;34.818;2023-07-13T02:30:39;31.80;48.10
23618;DHT22;18207;32.078;34.818;2023-07-13T02:33:10;31.80;48.20
23618;DHT22;18207;32.078;34.818;2023-07-13T02:35:40;31.80;48.30
23618;DHT22;18207;32.078;34.818;2023-07-13T02:38:12;31.80;48.30
23618;DHT22;18207;32.078;34.818;2023-07-13T02:40:42;31.70;48.20
23618;DHT22;18207;32.078;34.818;2023-07-13T02:43:12;31.80;48.30
23618;DHT22;18207;32.078;34.818;2023-07-13T02:45:44;31.80;48.30
23618;DHT22;18207;32.078;34.818;2023-07-13T02:48:14;31.70;48.40
23618;DHT22;18207;32.078;34.818;2023-07-13T02:50:44;31.70;48.50
23618;DHT22;18207;32.078;34.818;2023-07-13T02:53:17;31.70;48.50
23618;DHT22;18207;32.078;34.818;2023-07-13T02:55:47;31.60;48.50
23618;DHT22;18207;32.078;34.818;2023-07-13T02:58:17;31.70;48.60
23618;DHT22;18207;32.078;34.818;2023-07-13T03:00:48;31.60;48.70
23618;DHT22;18207;32.078;34.818;2023-07-13T03:03:18;31.70;48.80
23618;DHT22;18207;32.078;34.818;2023-07-13T03:05:48;31.60;48.70
23618;DHT22;18207;32.078;34.818;2023-07-13T03:08:31;31.60;48.80
23618;DHT22;18207;32.078;34.818;2023-07-13T03:11:03;31.60;48.80
23618;DHT22;18207;32.078;34.818;2023-07-13T03:13:34;31.60;48.80
23618;DHT22;18207;32.078;34.818;2023-07-13T03:16:05;31.60;48.80
23618;DHT22;18207;32.078;34.818;2023-07-13T03:18:36;31.60;48.80
23618;DHT22;18207;32.078;34.818;2023-07-13T03:21:07;31.60;48.90
23618;DHT22;18207;32.078;34.818;2023-07-13T03:23:40;31.60;48.90
23618;DHT22;18207;32.078;34.818;2023-07-13T03:26:12;31.60;48.80
23618;DHT22;18207;32.078;34.818;2023-07-13T03:28:45;31.60;48.90
23618;DHT22;18207;32.078;34.818;2023-07-13T03:31:17;31.60;49.00
23618;DHT22;18207;32.078;34.818;2023-07-13T03:33:49;31.60;49.00
23618;DHT22;18207;32.078;34.818;2023-07-13T03:36:22;31.60;49.20
23618;DHT22;18207;32.078;34.818;2023-07-13T03:38:58;31.60;49.00
23618;DHT22;18207;32.078;34.818;2023-07-13T03:41:30;31.60;48.80
23618;DHT22;18207;32.078;34.818;2023-07-13T03:43:59;31.60;48.90
23618;DHT22;18207;32.078;34.818;2023-07-13T03:46:30;31.60;48.90
23618;DHT22;18207;32.078;34.818;2023-07-13T03:49:03;31.60;49.00
23618;DHT22;18207;32.078;34.818;2023-07-13T03:51:34;31.60;48.90
23618;DHT22;18207;32.078;34.818;2023-07-13T03:54:06;31.60;49.00
23618;DHT22;18207;32.078;34.818;2023-07-13T03:56:36;31.60;49.00
23618;DHT22;18207;32.078;34.818;2023-07-13T03:59:06;31.60;48.90
23618;DHT22;18207;32.078;34.818;2023-07-13T04:01:36;31.60;49.00
23618;DHT22;18207;32.078;34.818;2023-07-13T04:04:05;31.60;49.00
23618;DHT22;18207;32.078;34.818;2023-07-13T04:06:36;31.70;49.10
23618;DHT22;18207;32.078;34.818;2023-07-13T04:09:09;31.70;49.00
23618;DHT22;18207;32.078;34.818;2023-07-13T04:11:39;31.70;49.00
23618;DHT22;18207;32.078;34.818;2023-07-13T04:14:09;31.70;49.00
23618;DHT22;18207;32.078;34.818;2023-07-13T04:16:39;31.80;49.10
23618;DHT22;18207;32.078;34.818;2023-07-13T04:19:10;31.80;49.10
23618;DHT22;18207;32.078;34.818;2023-07-13T04:21:40;31.80;49.10
23618;DHT22;18207;32.078;34.818;2023-07-13T04:24:12;31.80;49.20
23618;DHT22;18207;32.078;34.818;2023-07-13T04:26:42;31.80;49.10
23618;DHT22;18207;32.078;34.818;2023-07-13T04:29:12;31.80;49.20
23618;DHT22;18207;32.078;34.818;2023-07-13T04:31:42;31.80;49.20
23618;DHT22;18207;32.078;34.818;2023-07-13T04:34:13;31.90;49.30
23618;DHT22;18207;32.078;34.818;2023-07-13T04:36:42;31.90;49.40
23618;DHT22;18207;32.078;34.818;2023-07-13T04:39:15;31.90;49.40
23618;DHT22;18207;32.078;34.818;2023-07-13T04:41:45;31.90;49.40
23618;DHT22;18207;32.078;34.818;2023-07-13T04:44:16;32.00;49.50
23618;DHT22;18207;32.078;34.818;2023-07-13T04:46:46;32.00;49.50
23618;DHT22;18207;32.078;34.818;2023-07-13T04:49:17;32.00;49.50
23618;DHT22;18207;32.078;34.818;2023-07-13T04:51:46;32.00;49.50
23618;DHT22;18207;32.078;34.818;2023-07-13T04:54:19;32.00;49.50
23618;DHT22;18207;32.078;34.818;2023-07-13T04:56:49;32.10;49.60
23618;DHT22;18207;32.078;34.818;2023-07-13T04:59:20;32.10;49.60
23618;DHT22;18207;32.078;34.818;2023-07-13T05:01:49;32.10;49.50
23618;DHT22;18207;32.078;34.818;2023-07-13T05:04:20;32.10;49.60
23618;DHT22;18207;32.078;34.818;2023-07-13T05:06:50;32.20;49.60
23618;DHT22;18207;32.078;34.818;2023-07-13T05:09:22;32.20;49.70
23618;DHT22;18207;32.078;34.818;2023-07-13T05:11:53;32.20;49.70
23618;DHT22;18207;32.078;34.818;2023-07-13T05:14:23;32.30;49.70
23618;DHT22;18207;32.078;34.818;2023-07-13T05:16:53;32.30;49.70
23618;DHT22;18207;32.078;34.818;2023-07-13T05:19:24;32.30;49.60
23618;DHT22;18207;32.078;34.818;2023-07-13T05:21:54;32.40;49.60
23618;DHT22;18207;32.078;34.818;2023-07-13T05:24:27;32.40;49.50
23618;DHT22;18207;32.078;34.818;2023-07-13T05:26:56;32.40;49.50
23618;DHT22;18207;32.078;34.818;2023-07-13T05:29:26;32.50;49.40
23618;DHT22;18207;32.078;34.818;2023-07-13T05:31:57;32.50;49.40
23618;DHT22;18207;32.078;34.818;2023-07-13T05:34:27;32.50;49.40
23618;DHT22;18207;32.078;34.818;2023-07-13T05:36:58;32.50;49.40
23618;DHT22;18207;32.078;34.818;2023-07-13T05:39:30;32.50;49.40
23618;DHT22;18207;32.078;34.818;2023-07-13T05:42:02;32.60;49.50
23618;DHT22;18207;32.078;34.818;2023-07-13T05:44:33;32.60;49.30
23618;DHT22;18207;32.078;34.818;2023-07-13T05:47:04;32.70;49.30
23618;DHT22;18207;32.078;34.818;2023-07-13T05:49:35;32.80;49.30
23618;DHT22;18207;32.078;34.818;2023-07-13T05:52:05;32.80;49.20
23618;DHT22;18207;32.078;34.818;2023-07-13T05:54:38;32.80;49.20
23618;DHT22;18207;32.078;34.818;2023-07-13T05:57:08;32.90;49.10
23618;DHT22;18207;32.078;34.818;2023-07-13T05:59:38;33.00;49.00
23618;DHT22;18207;32.078;34.818;2023-07-13T06:02:09;33.00;49.00
23618;DHT22;18207;32.078;34.818;2023-07-13T06:04:40;33.00;48.80
23618;DHT22;18207;32.078;34.818;2023-07-13T06:07:09;33.10;48.80
23618;DHT22;18207;32.078;34.818;2023-07-13T06:09:42;33.10;48.70
23618;DHT22;18207;32.078;34.818;2023-07-13T06:12:12;33.20;48.70
23618;DHT22;18207;32.078;34.818;2023-07-13T06:14:42;33.20;48.70
23618;DHT22;18207;32.078;34.818;2023-07-13T06:17:12;33.30;48.80
23618;DHT22;18207;32.078;34.818;2023-07-13T06:19:42;33.30;48.80
23618;DHT22;18207;32.078;34.818;2023-07-13T06:22:12;33.40;48.80
23618;DHT22;18207;32.078;34.818;2023-07-13T06:24:45;33.50;48.90
23618;DHT22;18207;32.078;34.818;2023-07-13T06:27:15;33.50;48.80
23618;DHT22;18207;32.078;34.818;2023-07-13T06:29:45;33.50;48.70
23618;DHT22;18207;32.078;34.818;2023-07-13T06:32:16;33.60;48.70
23618;DHT22;18207;32.078;34.818;2023-07-13T06:34:47;33.60;48.50
23618;DHT22;18207;32.078;34.818;2023-07-13T06:37:16;33.70;48.40
23618;DHT22;18207;32.078;34.818;2023-07-13T06:39:48;33.70;48.40
23618;DHT22;18207;32.078;34.818;2023-07-13T06:42:19;33.70;48.40
23618;DHT22;18207;32.078;34.818;2023-07-13T06:44:49;33.80;48.30
23618;DHT22;18207;32.078;34.818;2023-07-13T06:47:19;33.80;48.30
23618;DHT22;18207;32.078;34.818;2023-07-13T06:49:49;33.90;48.30
23618;DHT22;18207;32.078;34.818;2023-07-13T06:52:19;33.90;48.20
23618;DHT22;18207;32.078;34.818;2023-07-13T06:54:51;34.00;48.20
23618;DHT22;18207;32.078;34.818;2023-07-13T06:57:22;34.00;48.10
23618;DHT22;18207;32.078;34.818;2023-07-13T06:59:52;34.10;48.20
23618;DHT22;18207;32.078;34.818;2023-07-13T07:02:22;34.10;48.20
23618;DHT22;18207;32.078;34.818;2023-07-13T07:04:53;34.10;48.80
23618;DHT22;18207;32.078;34.818;2023-07-13T07:07:24;34.10;48.20
23618;DHT22;18207;32.078;34.818;2023-07-13T07:09:56;34.20;48.20
23618;DHT22;18207;32.078;34.818;2023-07-13T07:12:27;34.20;48.00
23618;DHT22;18207;32.078;34.818;2023-07-13T07:14:58;34.30;48.00
23618;DHT22;18207;32.078;34.818;2023-07-13T07:17:28;34.30;48.00
23618;DHT22;18207;32.078;34.818;2023-07-13T07:19:59;34.30;48.00
23618;DHT22;18207;32.078;34.818;2023-07-13T07:22:29;34.40;48.00
23618;DHT22;18207;32.078;34.818;2023-07-13T07:25:02;34.40;47.90
23618;DHT22;18207;32.078;34.818;2023-07-13T07:27:33;34.40;47.90
23618;DHT22;18207;32.078;34.818;2023-07-13T07:30:07;34.50;47.90
23618;DHT22;18207;32.078;34.818;2023-07-13T07:32:45;34.50;47.80
23618;DHT22;18207;32.078;34.818;2023-07-13T07:35:18;34.50;47.80
23618;DHT22;18207;32.078;34.818;2023-07-13T07:37:48;34.50;47.80
23618;DHT22;18207;32.078;34.818;2023-07-13T07:40:20;34.60;47.80
23618;DHT22;18207;32.078;34.818;2023-07-13T07:42:54;34.60;47.70
23618;DHT22;18207;32.078;34.818;2023-07-13T07:45:26;34.60;47.70
23618;DHT22;18207;32.078;34.818;2023-07-13T07:47:56;34.70;47.70
23618;DHT22;18207;32.078;34.818;2023-07-13T07:50:28;34.70;47.70
23618;DHT22;18207;32.078;34.818;2023-07-13T07:52:59;34.70;47.60
23618;DHT22;18207;32.078;34.818;2023-07-13T07:55:33;34.70;47.50
23618;DHT22;18207;32.078;34.818;2023-07-13T07:58:07;34.70;47.40
23618;DHT22;18207;32.078;34.818;2023-07-13T08:01:03;34.80;47.40
23618;DHT22;18207;32.078;34.818;2023-07-13T08:03:36;34.70;47.20
23618;DHT22;18207;32.078;34.818;2023-07-13T08:06:09;34.80;47.30
23618;DHT22;18207;32.078;34.818;2023-07-13T08:08:59;34.80;47.30
23618;DHT22;18207;32.078;34.818;2023-07-13T08:11:33;34.90;47.20
23618;DHT22;18207;32.078;34.818;2023-07-13T08:14:06;34.90;47.20
23618;DHT22;18207;32.078;34.818;2023-07-13T08:16:37;34.90;47.20
23618;DHT22;18207;32.078;34.818;2023-07-13T08:19:07;34.80;47.20
23618;DHT22;18207;32.078;34.818;2023-07-13T08:21:38;34.90;47.10
23618;DHT22;18207;32.078;34.818;2023-07-13T08:24:10;34.90;47.00
23618;DHT22;18207;32.078;34.818;2023-07-13T08:26:42;34.90;46.80
23618;DHT22;18207;32.078;34.818;2023-07-13T08:29:13;34.90;46.90
23618;DHT22;18207;32.078;34.818;2023-07-13T08:31:43;34.90;46.80
23618;DHT22;18207;32.078;34.818;2023-07-13T08:34:13;35.00;46.80
23618;DHT22;18207;32.078;34.818;2023-07-13T08:36:44;35.00;46.90
23618;DHT22;18207;32.078;34.818;2023-07-13T08:39:14;35.00;46.90
23618;DHT22;18207;32.078;34.818;2023-07-13T08:41:50;35.00;46.80
23618;DHT22;18207;32.078;34.818;2023-07-13T08:44:43;35.00;46.70
23618;DHT22;18207;32.078;34.818;2023-07-13T08:47:22;35.00;46.80
23618;DHT22;18207;32.078;34.818;2023-07-13T08:49:53;35.00;46.80
23618;DHT22;18207;32.078;34.818;2023-07-13T08:52:30;35.10;46.80
23618;DHT22;18207;32.078;34.818;2023-07-13T08:55:12;35.10;46.60
23618;DHT22;18207;32.078;34.818;2023-07-13T08:57:53;35.10;46.60
23618;DHT22;18207;32.078;34.818;2023-07-13T09:00:37;35.10;46.60
23618;DHT22;18207;32.078;34.818;2023-07-13T09:03:20;35.10;46.60
23618;DHT22;18207;32.078;34.818;2023-07-13T09:05:56;35.10;46.50
23618;DHT22;18207;32.078;34.818;2023-07-13T09:08:46;35.10;46.40
23618;DHT22;18207;32.078;34.818;2023-07-13T09:11:36;35.10;46.40
23618;DHT22;18207;32.078;34.818;2023-07-13T09:14:41;35.10;46.30
23618;DHT22;18207;32.078;34.818;2023-07-13T09:17:18;35.10;46.00
23618;DHT22;18207;32.078;34.818;2023-07-13T09:19:57;35.10;46.10
23618;DHT22;18207;32.078;34.818;2023-07-13T09:22:34;35.20;46.10
23618;DHT22;18207;32.078;34.818;2023-07-13T09:25:22;35.20;46.20
23618;DHT22;18207;32.078;34.818;2023-07-13T09:27:59;35.20;46.10
23618;DHT22;18207;32.078;34.818;2023-07-13T09:30:40;35.20;46.20
23618;DHT22;18207;32.078;34.818;2023-07-13T09:33:16;35.20;46.20
23618;DHT22;18207;32.078;34.818;2023-07-13T09:35:46;35.20;46.20
23618;DHT22;18207;32.078;34.818;2023-07-13T09:38:18;35.20;46.20
23618;DHT22;18207;32.078;34.818;2023-07-13T09:41:00;35.20;46.30
23618;DHT22;18207;32.078;34.818;2023-07-13T09:44:01;35.20;46.20
23618;DHT22;18207;32.078;34.818;2023-07-13T09:46:39;35.20;46.10
23618;DHT22;18207;32.078;34.818;2023-07-13T09:49:14;35.30;46.20
23618;DHT22;18207;32.078;34.818;2023-07-13T09:51:44;35.30;46.30
23618;DHT22;18207;32.078;34.818;2023-07-13T09:54:20;35.30;46.20
23618;DHT22;18207;32.078;34.818;2023-07-13T09:56:55;35.30;46.20
23618;DHT22;18207;32.078;34.818;2023-07-13T09:59:30;35.30;46.20
23618;DHT22;18207;32.078;34.818;2023-07-13T10:02:23;35.30;46.20
23618;DHT22;18207;32.078;34.818;2023-07-13T10:04:59;35.30;46.00
23618;DHT22;18207;32.078;34.818;2023-07-13T10:07:39;35.40;46.10
23618;DHT22;18207;32.078;34.818;2023-07-13T10:10:15;35.40;46.10
23618;DHT22;18207;32.078;34.818;2023-07-13T10:12:48;35.40;46.00
23618;DHT22;18207;32.078;34.818;2023-07-13T10:15:22;35.40;46.00
23618;DHT22;18207;32.078;34.818;2023-07-13T10:17:56;35.40;45.90
23618;DHT22;18207;32.078;34.818;2023-07-13T10:20:28;35.40;45.90
23618;DHT22;18207;32.078;34.818;2023-07-13T10:23:01;35.40;45.90
23618;DHT22;18207;32.078;34.818;2023-07-13T10:25:36;35.40;45.80
23618;DHT22;18207;32.078;34.818;2023-07-13T10:28:17;35.40;45.70
23618;DHT22;18207;32.078;34.818;2023-07-13T10:30:56;35.40;45.50
23618;DHT22;18207;32.078;34.818;2023-07-13T10:33:31;35.50;45.60
23618;DHT22;18207;32.078;34.818;2023-07-13T10:36:11;35.50;45.40
23618;DHT22;18207;32.078;34.818;2023-07-13T10:38:47;35.50;45.30
23618;DHT22;18207;32.078;34.818;2023-07-13T10:41:21;35.50;45.20
23618;DHT22;18207;32.078;34.818;2023-07-13T10:43:56;35.50;45.10
23618;DHT22;18207;32.078;34.818;2023-07-13T10:46:28;35.50;45.00
23618;DHT22;18207;32.078;34.818;2023-07-13T10:49:04;35.50;44.80
23618;DHT22;18207;32.078;34.818;2023-07-13T10:51:36;35.50;44.60
23618;DHT22;18207;32.078;34.818;2023-07-13T10:54:16;35.40;44.50
23618;DHT22;18207;32.078;34.818;2023-07-13T10:56:52;35.50;44.60
23618;DHT22;18207;32.078;34.818;2023-07-13T10:59:36;35.40;44.50
23618;DHT22;18207;32.078;34.818;2023-07-13T11:02:12;35.50;44.50
23618;DHT22;18207;32.078;34.818;2023-07-13T11:04:54;35.50;44.50
23618;DHT22;18207;32.078;34.818;2023-07-13T11:07:28;35.50;44.50
23618;DHT22;18207;32.078;34.818;2023-07-13T11:10:04;35.50;44.60
23618;DHT22;18207;32.078;34.818;2023-07-13T11:12:56;35.50;44.50
23618;DHT22;18207;32.078;34.818;2023-07-13T11:15:42;35.40;44.50
23618;DHT22;18207;32.078;34.818;2023-07-13T11:18:21;35.50;44.50
23618;DHT22;18207;32.078;34.818;2023-07-13T11:21:13;35.50;44.40
23618;DHT22;18207;32.078;34.818;2023-07-13T11:24:03;35.40;44.30
23618;DHT22;18207;32.078;34.818;2023-07-13T11:26:51;35.40;44.40
23618;DHT22;18207;32.078;34.818;2023-07-13T11:29:27;35.50;44.40
23618;DHT22;18207;32.078;34.818;2023-07-13T11:32:24;35.50;44.40
23618;DHT22;18207;32.078;34.818;2023-07-13T11:34:59;35.40;44.20
23618;DHT22;18207;32.078;34.818;2023-07-13T11:37:32;35.50;44.30
23618;DHT22;18207;32.078;34.818;2023-07-13T11:40:03;35.50;44.20
23618;DHT22;18207;32.078;34.818;2023-07-13T11:42:37;35.40;43.90
23618;DHT22;18207;32.078;34.818;2023-07-13T11:45:19;35.50;43.90
23618;DHT22;18207;32.078;34.818;2023-07-13T11:48:19;35.50;43.90
23618;DHT22;18207;32.078;34.818;2023-07-13T11:50:59;35.50;43.80
23618;DHT22;18207;32.078;34.818;2023-07-13T11:53:39;35.50;43.80
23618;DHT22;18207;32.078;34.818;2023-07-13T11:56:11;35.50;43.80
23618;DHT22;18207;32.078;34.818;2023-07-13T11:58:42;35.50;43.80
23618;DHT22;18207;32.078;34.818;2023-07-13T12:01:19;35.50;43.70
23618;DHT22;18207;32.078;34.818;2023-07-13T12:03:52;35.50;43.60
23618;DHT22;18207;32.078;34.818;2023-07-13T12:06:28;35.50;43.50
23618;DHT22;18207;32.078;34.818;2023-07-13T12:09:08;35.50;43.40
23618;DHT22;18207;32.078;34.818;2023-07-13T12:11:44;35.40;43.30
23618;DHT22;18207;32.078;34.818;2023-07-13T12:14:15;35.50;43.30
23618;DHT22;18207;32.078;34.818;2023-07-13T12:16:47;35.40;43.30
23618;DHT22;18207;32.078;34.818;2023-07-13T12:19:19;35.50;43.40
23618;DHT22;18207;32.078;34.818;2023-07-13T12:21:53;35.40;43.20
23618;DHT22;18207;32.078;34.818;2023-07-13T12:24:28;35.50;43.10
23618;DHT22;18207;32.078;34.818;2023-07-13T12:27:01;35.50;43.00
23618;DHT22;18207;32.078;34.818;2023-07-13T12:29:33;35.40;42.90
23618;DHT22;18207;32.078;34.818;2023-07-13T12:32:08;35.40;42.90
23618;DHT22;18207;32.078;34.818;2023-07-13T12:34:52;35.40;42.70
23618;DHT22;18207;32.078;34.818;2023-07-13T12:37:24;35.40;42.50
23618;DHT22;18207;32.078;34.818;2023-07-13T12:39:57;35.40;42.60
23618;DHT22;18207;32.078;34.818;2023-07-13T12:42:28;35.40;42.40
23618;DHT22;18207;32.078;34.818;2023-07-13T12:45:03;35.40;42.50
23618;DHT22;18207;32.078;34.818;2023-07-13T12:47:49;35.40;42.30
23618;DHT22;18207;32.078;34.818;2023-07-13T12:50:28;35.40;42.40
23618;DHT22;18207;32.078;34.818;2023-07-13T12:53:02;35.30;42.40
23618;DHT22;18207;32.078;34.818;2023-07-13T12:55:46;35.30;42.30
23618;DHT22;18207;32.078;34.818;2023-07-13T12:58:24;35.30;42.10
23618;DHT22;18207;32.078;34.818;2023-07-13T13:00:58;35.30;42.20
23618;DHT22;18207;32.078;34.818;2023-07-13T13:03:32;35.30;42.20
23618;DHT22;18207;32.078;34.818;2023-07-13T13:06:05;35.30;42.00
23618;DHT22;18207;32.078;34.818;2023-07-13T13:08:50;35.30;42.00
23618;DHT22;18207;32.078;34.818;2023-07-13T13:11:25;35.30;41.80
23618;DHT22;18207;32.078;34.818;2023-07-13T13:13:56;35.20;41.70
23618;DHT22;18207;32.078;34.818;2023-07-13T13:16:31;35.20;41.50
23618;DHT22;18207;32.078;34.818;2023-07-13T13:19:14;35.20;41.30
23618;DHT22;18207;32.078;34.818;2023-07-13T13:21:46;35.20;41.10
23618;DHT22;18207;32.078;34.818;2023-07-13T13:24:19;35.20;41.20
23618;DHT22;18207;32.078;34.818;2023-07-13T13:26:53;35.20;41.10
23618;DHT22;18207;32.078;34.818;2023-07-13T13:29:25;35.20;41.00
23618;DHT22;18207;32.078;34.818;2023-07-13T13:31:55;35.10;40.90
23618;DHT22;18207;32.078;34.818;2023-07-13T13:34:27;35.10;40.90
23618;DHT22;18207;32.078;34.818;2023-07-13T13:36:57;35.10;40.90
23618;DHT22;18207;32.078;34.818;2023-07-13T13:39:32;35.10;40.80
23618;DHT22;18207;32.078;34.818;2023-07-13T13:42:09;35.10;40.80
23618;DHT22;18207;32.078;34.818;2023-07-13T13:44:40;35.10;40.50
23618;DHT22;18207;32.078;34.818;2023-07-13T13:47:23;35.10;40.70
23618;DHT22;18207;32.078;34.818;2023-07-13T13:50:13;35.10;40.00
23618;DHT22;18207;32.078;34.818;2023-07-13T13:52:46;35.10;40.00
23618;DHT22;18207;32.078;34.818;2023-07-13T13:55:17;35.10;40.00
23618;DHT22;18207;32.078;34.818;2023-07-13T13:57:53;35.10;39.90
23618;DHT22;18207;32.078;34.818;2023-07-13T14:00:24;35.10;39.70
23618;DHT22;18207;32.078;34.818;2023-07-13T14:02:54;35.10;39.70
23618;DHT22;18207;32.078;34.818;2023-07-13T14:05:26;35.10;39.60
23618;DHT22;18207;32.078;34.818;2023-07-13T14:07:56;35.10;39.40
23618;DHT22;18207;32.078;34.818;2023-07-13T14:10:27;35.00;39.20
23618;DHT22;18207;32.078;34.818;2023-07-13T14:13:00;35.00;39.00
23618;DHT22;18207;32.078;34.818;2023-07-13T14:15:32;35.00;38.90
23618;DHT22;18207;32.078;34.818;2023-07-13T14:18:03;34.90;38.90
23618;DHT22;18207;32.078;34.818;2023-07-13T14:20:33;34.90;38.90
23618;DHT22;18207;32.078;34.818;2023-07-13T14:23:04;34.90;38.90
23618;DHT22;18207;32.078;34.818;2023-07-13T14:25:34;34.90;38.80
23618;DHT22;18207;32.078;34.818;2023-07-13T14:28:19;34.90;38.90
23618;DHT22;18207;32.078;34.818;2023-07-13T14:30:52;34.80;38.60
23618;DHT22;18207;32.078;34.818;2023-07-13T14:33:23;34.80;38.80
23618;DHT22;18207;32.078;34.818;2023-07-13T14:35:53;34.80;38.70
23618;DHT22;18207;32.078;34.818;2023-07-13T14:38:24;34.80;38.70
23618;DHT22;18207;32.078;34.818;2023-07-13T14:40:54;34.80;38.80
23618;DHT22;18207;32.078;34.818;2023-07-13T14:43:27;34.80;38.70
23618;DHT22;18207;32.078;34.818;2023-07-13T14:45:57;34.70;38.60
23618;DHT22;18207;32.078;34.818;2023-07-13T14:48:28;34.70;38.60
23618;DHT22;18207;32.078;34.818;2023-07-13T14:50:59;34.70;38.50
23618;DHT22;18207;32.078;34.818;2023-07-13T14:53:30;34.70;38.50
23618;DHT22;18207;32.078;34.818;2023-07-13T14:55:59;34.70;39.10
23618;DHT22;18207;32.078;34.818;2023-07-13T14:58:31;34.70;38.40
23618;DHT22;18207;32.078;34.818;2023-07-13T15:01:02;34.70;38.30
23618;DHT22;18207;32.078;34.818;2023-07-13T15:03:32;34.70;38.40
23618;DHT22;18207;32.078;34.818;2023-07-13T15:06:09;34.70;38.30
23618;DHT22;18207;32.078;34.818;2023-07-13T15:08:41;34.70;38.30
23618;DHT22;18207;32.078;34.818;2023-07-13T15:11:12;34.70;38.30
23618;DHT22;18207;32.078;34.818;2023-07-13T15:13:44;34.70;38.20
23618;DHT22;18207;32.078;34.818;2023-07-13T15:16:17;34.70;38.10
23618;DHT22;18207;32.078;34.818;2023-07-13T15:18:51;34.60;38.00
23618;DHT22;18207;32.078;34.818;2023-07-13T15:21:24;34.60;37.90
23618;DHT22;18207;32.078;34.818;2023-07-13T15:23:58;34.60;37.90
23618;DHT22;18207;32.078;34.818;2023-07-13T15:26:30;34.70;38.00
23618;DHT22;18207;32.078;34.818;2023-07-13T15:29:03;34.60;37.90
23618;DHT22;18207;32.078;34.818;2023-07-13T15:31:35;34.60;37.90
23618;DHT22;18207;32.078;34.818;2023-07-13T15:34:13;34.60;37.90
23618;DHT22;18207;32.078;34.818;2023-07-13T15:36:44;34.60;37.80
23618;DHT22;18207;32.078;34.818;2023-07-13T15:39:16;34.60;37.80
23618;DHT22;18207;32.078;34.818;2023-07-13T15:41:47;34.60;37.80
23618;DHT22;18207;32.078;34.818;2023-07-13T15:44:26;34.60;37.80
23618;DHT22;18207;32.078;34.818;2023-07-13T15:46:58;34.60;37.60
23618;DHT22;18207;32.078;34.818;2023-07-13T15:49:31;34.60;37.80
23618;DHT22;18207;32.078;34.818;2023-07-13T15:52:02;34.50;37.70
23618;DHT22;18207;32.078;34.818;2023-07-13T15:54:33;34.50;37.80